sensor_id;sensor_type;location;lat;lon;timestamp;pressure;altitude;pressure_sealevel;temperature;humidity
20612;BME280;10465;42.686;23.364;2023-07-16T00:01:57;95224.25;;;27.52;66.83
20612;BME280;10465;42.686;23.364;2023-07-16T00:04:23;95209.19;;;27.44;67.00
20612;BME280;10465;42.686;23.364;2023-07-16T00:06:49;95223.13;;;27.46;66.48
20612;BME280;10465;42.686;23.364;2023-07-16T00:09:15;95229.25;;;27.54;66.73
20612;BME280;10465;42.686;23.364;2023-07-16T00:11:40;95225.78;;;27.53;66.47
20612;BME280;10465;42.686;23.364;2023-07-16T00:14:05;95230.84;;;27.55;66.10
20612;BME280;10465;42.686;23.364;2023-07-16T00:16:31;95215.41;;;27.45;65.84
20612;BME280;10465;42.686;23.364;2023-07-16T00:18:56;95223.47;;;27.52;65.82
20612;BME280;10465;42.686;23.364;2023-07-16T00:21:31;95209.97;;;27.45;65.67
20612;BME280;10465;42.686;23.364;2023-07-16T00:23:56;95208.78;;;27.46;65.71
20612;BME280;10465;42.686;23.364;2023-07-16T00:26:22;95221.06;;;27.57;65.73
20612;BME280;10465;42.686;23.364;2023-07-16T00:28:47;95218.81;;;27.52;65.62
20612;BME280;10465;42.686;23.364;2023-07-16T00:31:13;95223.09;;;27.50;65.92
20612;BME280;10465;42.686;23.364;2023-07-16T00:33:38;95216.16;;;27.45;65.59
20612;BME280;10465;42.686;23.364;2023-07-16T00:36:04;95220.75;;;27.52;65.65
20612;BME280;10465;42.686;23.364;2023-07-16T00:38:30;95213.78;;;27.51;65.39
20612;BME280;10465;42.686;23.364;2023-07-16T00:40:56;95204.13;;;27.43;65.43
20612;BME280;10465;42.686;23.364;2023-07-16T00:43:21;95227.31;;;27.54;65.37
20612;BME280;10465;42.686;23.364;2023-07-16T00:45:46;95215.72;;;27.50;65.17
20612;BME280;10465;42.686;23.364;2023-07-16T00:48:12;95206.13;;;27.39;65.60
20612;BME280;10465;42.686;23.364;2023-07-16T00:50:38;95220.88;;;27.41;65.99
20612;BME280;10465;42.686;23.364;2023-07-16T00:53:09;95224.53;;;27.24;66.45
20612;BME280;10465;42.686;23.364;2023-07-16T00:55:36;95226.91;;;27.18;67.19
20612;BME280;10465;42.686;23.364;2023-07-16T00:58:05;95217.22;;;27.17;67.39
20612;BME280;10465;42.686;23.364;2023-07-16T01:00:39;95219.91;;;27.21;67.26
20612;BME280;10465;42.686;23.364;2023-07-16T01:03:06;95219.94;;;27.17;67.09
20612;BME280;10465;42.686;23.364;2023-07-16T01:08:42;95222.31;;;27.15;67.55
20612;BME280;10465;42.686;23.364;2023-07-16T01:11:08;95200.66;;;27.01;67.62
20612;BME280;10465;42.686;23.364;2023-07-16T01:13:35;95206.81;;;27.12;67.31
20612;BME280;10465;42.686;23.364;2023-07-16T01:16:01;95221.41;;;27.25;67.08
20612;BME280;10465;42.686;23.364;2023-07-16T01:18:27;95214.06;;;27.22;67.20
20612;BME280;10465;42.686;23.364;2023-07-16T01:20:52;95189.91;;;26.90;67.06
20612;BME280;10465;42.686;23.364;2023-07-16T01:23:35;95221.88;;;27.20;67.00
20612;BME280;10465;42.686;23.364;2023-07-16T01:31:38;95191.44;;;26.95;67.21
20612;BME280;10465;42.686;23.364;2023-07-16T01:34:05;95214.16;;;27.15;66.95
20612;BME280;10465;42.686;23.364;2023-07-16T01:36:33;95206.00;;;27.15;67.02
20612;BME280;10465;42.686;23.364;2023-07-16T01:39:00;95205.59;;;27.17;66.37
20612;BME280;10465;42.686;23.364;2023-07-16T01:41:26;95217.16;;;27.24;66.21
20612;BME280;10465;42.686;23.364;2023-07-16T01:43:51;95193.63;;;27.07;66.14
20612;BME280;10465;42.686;23.364;2023-07-16T01:46:17;95221.84;;;27.24;65.96
20612;BME280;10465;42.686;23.364;2023-07-16T01:48:43;95212.97;;;27.16;65.88
20612;BME280;10465;42.686;23.364;2023-07-16T01:51:09;95216.09;;;27.15;65.96
20612;BME280;10465;42.686;23.364;2023-07-16T01:53:35;95209.56;;;27.05;65.71
20612;BME280;10465;42.686;23.364;2023-07-16T01:56:01;95225.06;;;27.08;66.00
20612;BME280;10465;42.686;23.364;2023-07-16T01:58:27;95203.53;;;26.86;66.32
20612;BME280;10465;42.686;23.364;2023-07-16T02:00:53;95225.59;;;26.92;66.17
20612;BME280;10465;42.686;23.364;2023-07-16T02:03:18;95228.75;;;26.87;66.51
20612;BME280;10465;42.686;23.364;2023-07-16T02:05:43;95223.78;;;26.78;66.84
20612;BME280;10465;42.686;23.364;2023-07-16T02:08:09;95222.28;;;26.70;67.18
20612;BME280;10465;42.686;23.364;2023-07-16T02:10:34;95218.88;;;26.59;67.26
20612;BME280;10465;42.686;23.364;2023-07-16T02:13:00;95222.78;;;26.58;67.98
20612;BME280;10465;42.686;23.364;2023-07-16T02:15:25;95198.03;;;26.45;67.98
20612;BME280;10465;42.686;23.364;2023-07-16T02:17:50;95220.53;;;26.42;68.57
20612;BME280;10465;42.686;23.364;2023-07-16T02:20:16;95221.69;;;26.41;68.77
20612;BME280;10465;42.686;23.364;2023-07-16T02:22:41;95222.50;;;26.34;68.97
20612;BME280;10465;42.686;23.364;2023-07-16T02:25:07;95219.84;;;26.27;69.38
20612;BME280;10465;42.686;23.364;2023-07-16T02:27:32;95214.44;;;26.20;69.51
20612;BME280;10465;42.686;23.364;2023-07-16T02:29:58;95222.28;;;26.07;69.87
20612;BME280;10465;42.686;23.364;2023-07-16T02:32:23;95212.22;;;26.04;70.14
20612;BME280;10465;42.686;23.364;2023-07-16T02:34:49;95227.69;;;26.11;70.22
20612;BME280;10465;42.686;23.364;2023-07-16T02:37:14;95219.22;;;26.02;70.32
20612;BME280;10465;42.686;23.364;2023-07-16T02:39:41;95226.16;;;26.10;70.37
20612;BME280;10465;42.686;23.364;2023-07-16T02:42:07;95225.75;;;26.11;70.44
20612;BME280;10465;42.686;23.364;2023-07-16T02:44:32;95199.94;;;25.85;70.57
20612;BME280;10465;42.686;23.364;2023-07-16T02:46:58;95210.72;;;25.93;70.84
20612;BME280;10465;42.686;23.364;2023-07-16T02:49:24;95227.00;;;25.93;71.19
20612;BME280;10465;42.686;23.364;2023-07-16T02:51:49;95218.84;;;25.93;70.72
20612;BME280;10465;42.686;23.364;2023-07-16T02:54:14;95225.88;;;25.86;71.17
20612;BME280;10465;42.686;23.364;2023-07-16T02:56:40;95222.00;;;25.84;71.62
20612;BME280;10465;42.686;23.364;2023-07-16T02:59:05;95227.81;;;25.89;71.50
20612;BME280;10465;42.686;23.364;2023-07-16T03:01:31;95223.16;;;25.86;71.70
20612;BME280;10465;42.686;23.364;2023-07-16T03:03:57;95233.22;;;25.93;71.77
20612;BME280;10465;42.686;23.364;2023-07-16T03:06:22;95220.78;;;25.92;71.48
20612;BME280;10465;42.686;23.364;2023-07-16T03:08:47;95220.78;;;25.96;71.42
20612;BME280;10465;42.686;23.364;2023-07-16T03:11:13;95221.53;;;26.00;71.38
20612;BME280;10465;42.686;23.364;2023-07-16T03:13:39;95213.03;;;25.98;71.15
20612;BME280;10465;42.686;23.364;2023-07-16T03:16:04;95241.66;;;26.09;71.35
20612;BME280;10465;42.686;23.364;2023-07-16T03:18:30;95237.38;;;26.08;71.34
20612;BME280;10465;42.686;23.364;2023-07-16T03:20:56;95238.94;;;26.09;71.38
20612;BME280;10465;42.686;23.364;2023-07-16T03:23:22;95233.56;;;25.99;71.42
20612;BME280;10465;42.686;23.364;2023-07-16T03:25:48;95242.84;;;26.01;71.19
20612;BME280;10465;42.686;23.364;2023-07-16T03:28:14;95245.16;;;26.06;71.30
20612;BME280;10465;42.686;23.364;2023-07-16T03:30:39;95217.72;;;25.86;71.19
20612;BME280;10465;42.686;23.364;2023-07-16T03:33:05;95244.41;;;26.02;71.17
20612;BME280;10465;42.686;23.364;2023-07-16T03:35:30;95226.28;;;25.85;71.28
20612;BME280;10465;42.686;23.364;2023-07-16T03:37:56;95249.06;;;25.98;71.12
20612;BME280;10465;42.686;23.364;2023-07-16T03:40:25;95251.78;;;25.95;71.28
20612;BME280;10465;42.686;23.364;2023-07-16T03:42:51;95257.63;;;25.93;71.64
20612;BME280;10465;42.686;23.364;2023-07-16T03:45:17;95256.81;;;25.93;71.82
20612;BME280;10465;42.686;23.364;2023-07-16T03:47:43;95256.81;;;25.93;71.76
20612;BME280;10465;42.686;23.364;2023-07-16T03:50:08;95254.91;;;25.89;71.67
20612;BME280;10465;42.686;23.364;2023-07-16T03:52:34;95262.69;;;25.84;72.06
20612;BME280;10465;42.686;23.364;2023-07-16T03:55:00;95216.66;;;25.55;72.42
20612;BME280;10465;42.686;23.364;2023-07-16T03:57:27;95259.59;;;25.85;72.25
20612;BME280;10465;42.686;23.364;2023-07-16T03:59:53;95238.69;;;25.79;71.93
20612;BME280;10465;42.686;23.364;2023-07-16T04:02:18;95245.28;;;25.78;72.02
20612;BME280;10465;42.686;23.364;2023-07-16T04:04:44;95261.47;;;25.92;72.33
20612;BME280;10465;42.686;23.364;2023-07-16T04:07:09;95256.47;;;25.87;71.99
20612;BME280;10465;42.686;23.364;2023-07-16T04:09:37;95239.09;;;25.77;72.06
20612;BME280;10465;42.686;23.364;2023-07-16T04:12:04;95268.84;;;25.92;72.44
20612;BME280;10465;42.686;23.364;2023-07-16T04:14:29;95254.16;;;25.85;72.62
20612;BME280;10465;42.686;23.364;2023-07-16T04:16:55;95264.56;;;25.98;72.24
20612;BME280;10465;42.686;23.364;2023-07-16T04:19:20;95249.50;;;25.89;72.11
20612;BME280;10465;42.686;23.364;2023-07-16T04:21:46;95265.69;;;26.00;72.04
20612;BME280;10465;42.686;23.364;2023-07-16T04:24:11;95251.03;;;25.94;71.90
20612;BME280;10465;42.686;23.364;2023-07-16T04:26:36;95274.22;;;26.06;71.72
20612;BME280;10465;42.686;23.364;2023-07-16T04:29:02;95269.56;;;26.03;71.83
20612;BME280;10465;42.686;23.364;2023-07-16T04:31:27;95272.28;;;26.03;71.98
20612;BME280;10465;42.686;23.364;2023-07-16T04:33:53;95272.63;;;26.08;72.00
20612;BME280;10465;42.686;23.364;2023-07-16T04:36:18;95279.63;;;26.09;72.04
20612;BME280;10465;42.686;23.364;2023-07-16T04:38:44;95271.50;;;26.09;72.30
20612;BME280;10465;42.686;23.364;2023-07-16T04:41:09;95275.72;;;26.14;72.10
20612;BME280;10465;42.686;23.364;2023-07-16T04:43:34;95275.31;;;26.19;72.28
20612;BME280;10465;42.686;23.364;2023-07-16T04:46:00;95276.09;;;26.16;71.99
20612;BME280;10465;42.686;23.364;2023-07-16T04:48:26;95285.75;;;26.21;72.06
20612;BME280;10465;42.686;23.364;2023-07-16T04:50:52;95270.28;;;26.21;71.85
20612;BME280;10465;42.686;23.364;2023-07-16T04:53:17;95291.94;;;26.28;71.97
20612;BME280;10465;42.686;23.364;2023-07-16T04:55:44;95252.53;;;26.06;72.30
20612;BME280;10465;42.686;23.364;2023-07-16T04:58:11;95293.84;;;26.31;72.21
20612;BME280;10465;42.686;23.364;2023-07-16T05:00:37;95288.41;;;26.35;71.83
20612;BME280;10465;42.686;23.364;2023-07-16T05:03:02;95292.63;;;26.43;71.45
20612;BME280;10465;42.686;23.364;2023-07-16T05:05:28;95245.44;;;26.23;71.47
20612;BME280;10465;42.686;23.364;2023-07-16T05:07:53;95293.41;;;26.47;71.44
20612;BME280;10465;42.686;23.364;2023-07-16T05:10:19;95296.09;;;26.54;71.03
20612;BME280;10465;42.686;23.364;2023-07-16T05:12:44;95298.41;;;26.56;70.58
20612;BME280;10465;42.686;23.364;2023-07-16T05:15:10;95294.91;;;26.59;70.42
20612;BME280;10465;42.686;23.364;2023-07-16T05:17:35;95283.66;;;26.57;70.71
20612;BME280;10465;42.686;23.364;2023-07-16T05:20:01;95283.25;;;26.62;70.80
20612;BME280;10465;42.686;23.364;2023-07-16T05:22:26;95274.72;;;26.56;70.50
20612;BME280;10465;42.686;23.364;2023-07-16T05:24:51;95295.97;;;26.69;70.23
20612;BME280;10465;42.686;23.364;2023-07-16T05:27:17;95277.81;;;26.62;69.75
20612;BME280;10465;42.686;23.364;2023-07-16T05:29:42;95286.25;;;26.75;69.77
20612;BME280;10465;42.686;23.364;2023-07-16T05:32:08;95278.91;;;26.68;69.67
20612;BME280;10465;42.686;23.364;2023-07-16T05:34:33;95292.78;;;26.81;69.66
20612;BME280;10465;42.686;23.364;2023-07-16T05:36:59;95290.06;;;26.84;69.67
20612;BME280;10465;42.686;23.364;2023-07-16T05:39:24;95286.97;;;26.82;69.60
20612;BME280;10465;42.686;23.364;2023-07-16T05:41:50;95302.78;;;26.98;69.91
20612;BME280;10465;42.686;23.364;2023-07-16T05:44:16;95287.72;;;26.86;69.17
20612;BME280;10465;42.686;23.364;2023-07-16T05:46:41;95276.13;;;26.79;69.71
20612;BME280;10465;42.686;23.364;2023-07-16T05:49:07;95300.84;;;26.95;70.08
20612;BME280;10465;42.686;23.364;2023-07-16T05:51:32;95308.97;;;26.99;69.71
20612;BME280;10465;42.686;23.364;2023-07-16T05:53:58;95307.38;;;27.01;69.68
20612;BME280;10465;42.686;23.364;2023-07-16T05:56:23;95289.59;;;26.93;70.44
20612;BME280;10465;42.686;23.364;2023-07-16T05:58:49;95317.03;;;27.13;69.54
20612;BME280;10465;42.686;23.364;2023-07-16T06:01:14;95308.09;;;27.16;69.06
20612;BME280;10465;42.686;23.364;2023-07-16T06:03:40;95303.75;;;27.22;68.94
20612;BME280;10465;42.686;23.364;2023-07-16T06:06:08;95291.03;;;27.12;68.71
20612;BME280;10465;42.686;23.364;2023-07-16T06:08:34;95310.66;;;27.30;68.26
20612;BME280;10465;42.686;23.364;2023-07-16T06:10:59;95311.72;;;27.44;67.53
20612;BME280;10465;42.686;23.364;2023-07-16T06:13:25;95313.22;;;27.48;66.96
20612;BME280;10465;42.686;23.364;2023-07-16T06:15:50;95312.03;;;27.53;67.05
20612;BME280;10465;42.686;23.364;2023-07-16T06:18:16;95315.88;;;27.55;67.11
20612;BME280;10465;42.686;23.364;2023-07-16T06:20:45;95298.06;;;27.51;66.97
20612;BME280;10465;42.686;23.364;2023-07-16T06:23:11;95293.72;;;27.57;66.20
20612;BME280;10465;42.686;23.364;2023-07-16T06:25:37;95313.44;;;27.68;66.07
20612;BME280;10465;42.686;23.364;2023-07-16T06:28:03;95312.22;;;27.73;65.96
20612;BME280;10465;42.686;23.364;2023-07-16T06:30:29;95291.28;;;27.66;65.08
20612;BME280;10465;42.686;23.364;2023-07-16T06:32:57;95288.22;;;27.64;65.20
20612;BME280;10465;42.686;23.364;2023-07-16T06:35:22;95310.94;;;27.84;64.86
20612;BME280;10465;42.686;23.364;2023-07-16T06:37:48;95307.34;;;27.91;64.36
20612;BME280;10465;42.686;23.364;2023-07-16T06:40:13;95303.09;;;27.90;63.86
20612;BME280;10465;42.686;23.364;2023-07-16T06:42:39;95308.53;;;27.90;64.18
20612;BME280;10465;42.686;23.364;2023-07-16T06:45:05;95280.66;;;27.82;64.11
20612;BME280;10465;42.686;23.364;2023-07-16T06:47:30;95284.50;;;27.85;63.84
20612;BME280;10465;42.686;23.364;2023-07-16T06:49:56;95299.81;;;28.06;64.13
20612;BME280;10465;42.686;23.364;2023-07-16T06:52:22;95294.44;;;27.99;63.75
20612;BME280;10465;42.686;23.364;2023-07-16T06:54:48;95289.00;;;27.99;63.40
20612;BME280;10465;42.686;23.364;2023-07-16T06:57:14;95294.63;;;28.15;62.93
20612;BME280;10465;42.686;23.364;2023-07-16T06:59:39;95302.00;;;28.18;62.52
20612;BME280;10465;42.686;23.364;2023-07-16T07:02:05;95308.53;;;28.24;62.48
20612;BME280;10465;42.686;23.364;2023-07-16T07:04:31;95277.91;;;28.17;62.56
20612;BME280;10465;42.686;23.364;2023-07-16T07:06:57;95296.41;;;28.29;61.74
20612;BME280;10465;42.686;23.364;2023-07-16T07:09:22;95289.44;;;28.28;61.81
20612;BME280;10465;42.686;23.364;2023-07-16T07:11:48;95274.69;;;28.25;62.22
20612;BME280;10465;42.686;23.364;2023-07-16T07:14:13;95292.03;;;28.35;62.07
20612;BME280;10465;42.686;23.364;2023-07-16T07:16:38;95288.50;;;28.42;61.93
20612;BME280;10465;42.686;23.364;2023-07-16T07:19:05;95289.22;;;28.46;61.31
20612;BME280;10465;42.686;23.364;2023-07-16T07:21:31;95275.56;;;28.49;61.17
20612;BME280;10465;42.686;23.364;2023-07-16T07:23:56;95282.53;;;28.50;60.89
20612;BME280;10465;42.686;23.364;2023-07-16T07:26:22;95281.63;;;28.61;61.01
20612;BME280;10465;42.686;23.364;2023-07-16T07:28:47;95295.50;;;28.70;61.02
20612;BME280;10465;42.686;23.364;2023-07-16T07:31:13;95278.44;;;28.66;60.72
20612;BME280;10465;42.686;23.364;2023-07-16T07:33:38;95288.75;;;28.78;60.42
20612;BME280;10465;42.686;23.364;2023-07-16T07:36:04;95270.97;;;28.70;60.03
20612;BME280;10465;42.686;23.364;2023-07-16T07:38:29;95282.53;;;28.77;60.32
20612;BME280;10465;42.686;23.364;2023-07-16T07:40:55;95279.41;;;28.79;60.21
20612;BME280;10465;42.686;23.364;2023-07-16T07:43:20;95284.75;;;28.86;60.33
20612;BME280;10465;42.686;23.364;2023-07-16T07:45:46;95278.56;;;28.82;59.28
20612;BME280;10465;42.686;23.364;2023-07-16T07:48:12;95293.16;;;28.95;59.66
20612;BME280;10465;42.686;23.364;2023-07-16T07:50:37;95278.53;;;28.86;59.78
20612;BME280;10465;42.686;23.364;2023-07-16T07:53:02;95293.84;;;29.03;60.10
20612;BME280;10465;42.686;23.364;2023-07-16T07:55:28;95287.91;;;29.08;59.48
20612;BME280;10465;42.686;23.364;2023-07-16T07:57:53;95283.16;;;29.12;58.45
20612;BME280;10465;42.686;23.364;2023-07-16T08:00:19;95282.63;;;29.21;59.58
20612;BME280;10465;42.686;23.364;2023-07-16T08:02:45;95285.34;;;29.21;59.69
20612;BME280;10465;42.686;23.364;2023-07-16T08:05:10;95288.34;;;29.30;59.60
20612;BME280;10465;42.686;23.364;2023-07-16T08:07:36;95289.38;;;29.36;58.58
20612;BME280;10465;42.686;23.364;2023-07-16T08:10:02;95283.53;;;29.38;58.33
20612;BME280;10465;42.686;23.364;2023-07-16T08:12:27;95269.41;;;29.43;57.97
20612;BME280;10465;42.686;23.364;2023-07-16T08:14:53;95285.91;;;29.59;58.22
20612;BME280;10465;42.686;23.364;2023-07-16T08:17:18;95286.81;;;29.49;57.05
20612;BME280;10465;42.686;23.364;2023-07-16T08:19:44;95289.31;;;29.40;57.31
20612;BME280;10465;42.686;23.364;2023-07-16T08:22:09;95286.81;;;29.49;58.34
20612;BME280;10465;42.686;23.364;2023-07-16T08:24:35;95284.41;;;29.54;58.41
20612;BME280;10465;42.686;23.364;2023-07-16T08:27:00;95283.13;;;29.63;57.82
20612;BME280;10465;42.686;23.364;2023-07-16T08:29:26;95282.63;;;29.68;58.33
20612;BME280;10465;42.686;23.364;2023-07-16T08:31:51;95289.53;;;29.72;58.04
20612;BME280;10465;42.686;23.364;2023-07-16T08:34:16;95288.66;;;29.79;58.18
20612;BME280;10465;42.686;23.364;2023-07-16T08:36:42;95278.38;;;29.87;57.92
20612;BME280;10465;42.686;23.364;2023-07-16T08:39:09;95286.69;;;29.99;58.34
20612;BME280;10465;42.686;23.364;2023-07-16T08:41:35;95275.28;;;30.04;57.38
20612;BME280;10465;42.686;23.364;2023-07-16T08:44:01;95297.19;;;30.21;56.86
20612;BME280;10465;42.686;23.364;2023-07-16T08:46:27;95274.66;;;30.17;56.04
20612;BME280;10465;42.686;23.364;2023-07-16T08:48:53;95276.03;;;30.25;56.38
20612;BME280;10465;42.686;23.364;2023-07-16T08:51:20;95276.22;;;30.34;56.46
20612;BME280;10465;42.686;23.364;2023-07-16T08:53:46;95270.97;;;30.43;56.10
20612;BME280;10465;42.686;23.364;2023-07-16T08:56:12;95277.38;;;30.53;56.75
20612;BME280;10465;42.686;23.364;2023-07-16T08:58:38;95273.81;;;30.56;55.26
20612;BME280;10465;42.686;23.364;2023-07-16T09:01:04;95255.09;;;30.54;54.69
20612;BME280;10465;42.686;23.364;2023-07-16T09:03:31;95277.41;;;30.69;54.72
20612;BME280;10465;42.686;23.364;2023-07-16T09:05:56;95258.38;;;30.66;55.93
20612;BME280;10465;42.686;23.364;2023-07-16T09:08:22;95257.03;;;30.74;54.69
20612;BME280;10465;42.686;23.364;2023-07-16T09:10:57;95278.91;;;30.90;54.46
20612;BME280;10465;42.686;23.364;2023-07-16T09:13:23;95274.56;;;30.93;54.29
20612;BME280;10465;42.686;23.364;2023-07-16T09:15:55;95264.22;;;31.00;55.11
20612;BME280;10465;42.686;23.364;2023-07-16T09:18:26;95263.00;;;31.01;54.21
20612;BME280;10465;42.686;23.364;2023-07-16T09:20:59;95264.06;;;31.08;53.98
20612;BME280;10465;42.686;23.364;2023-07-16T09:23:27;95229.63;;;30.94;54.09
20612;BME280;10465;42.686;23.364;2023-07-16T09:25:54;95252.06;;;31.18;54.05
20612;BME280;10465;42.686;23.364;2023-07-16T09:28:19;95259.31;;;31.24;53.93
20612;BME280;10465;42.686;23.364;2023-07-16T09:30:46;95259.84;;;31.36;53.90
20612;BME280;10465;42.686;23.364;2023-07-16T09:33:14;95251.75;;;31.32;52.21
20612;BME280;10465;42.686;23.364;2023-07-16T09:35:40;95265.47;;;31.45;52.42
20612;BME280;10465;42.686;23.364;2023-07-16T09:38:08;95264.19;;;31.49;51.88
20612;BME280;10465;42.686;23.364;2023-07-16T09:40:36;95262.03;;;31.57;51.85
20612;BME280;10465;42.686;23.364;2023-07-16T09:43:03;95256.88;;;31.59;50.72
20612;BME280;10465;42.686;23.364;2023-07-16T09:45:28;95241.09;;;31.50;50.68
20612;BME280;10465;42.686;23.364;2023-07-16T09:47:54;95245.59;;;31.57;50.48
20612;BME280;10465;42.686;23.364;2023-07-16T09:50:23;95244.13;;;31.69;51.26
20612;BME280;10465;42.686;23.364;2023-07-16T09:52:51;95233.59;;;31.67;53.20
20612;BME280;10465;42.686;23.364;2023-07-16T09:55:17;95247.59;;;31.86;53.28
20612;BME280;10465;42.686;23.364;2023-07-16T09:57:44;95234.72;;;31.83;52.78
20612;BME280;10465;42.686;23.364;2023-07-16T10:00:11;95247.06;;;32.04;52.62
20612;BME280;10465;42.686;23.364;2023-07-16T10:02:38;95246.09;;;32.10;52.75
20612;BME280;10465;42.686;23.364;2023-07-16T10:05:18;95236.91;;;32.17;51.02
20612;BME280;10465;42.686;23.364;2023-07-16T10:07:51;95235.25;;;32.19;51.46
20612;BME280;10465;42.686;23.364;2023-07-16T10:10:18;95237.69;;;32.30;51.27
20612;BME280;10465;42.686;23.364;2023-07-16T10:13:04;95243.31;;;32.39;51.48
20612;BME280;10465;42.686;23.364;2023-07-16T10:15:30;95238.84;;;32.45;49.75
20612;BME280;10465;42.686;23.364;2023-07-16T10:17:56;95223.38;;;32.39;49.77
20612;BME280;10465;42.686;23.364;2023-07-16T10:20:33;95233.47;;;32.42;49.57
20612;BME280;10465;42.686;23.364;2023-07-16T10:23:10;95219.75;;;32.42;50.76
20612;BME280;10465;42.686;23.364;2023-07-16T10:25:38;95228.75;;;32.55;50.15
20612;BME280;10465;42.686;23.364;2023-07-16T10:28:03;95220.63;;;32.52;48.97
20612;BME280;10465;42.686;23.364;2023-07-16T10:30:30;95206.56;;;32.37;48.22
20612;BME280;10465;42.686;23.364;2023-07-16T10:32:55;95218.44;;;32.59;49.01
20612;BME280;10465;42.686;23.364;2023-07-16T10:35:21;95212.72;;;32.66;48.87
20612;BME280;10465;42.686;23.364;2023-07-16T10:37:46;95218.94;;;32.80;47.79
20612;BME280;10465;42.686;23.364;2023-07-16T10:40:13;95220.06;;;32.82;48.19
20612;BME280;10465;42.686;23.364;2023-07-16T10:42:43;95217.97;;;32.86;47.62
20612;BME280;10465;42.686;23.364;2023-07-16T10:45:09;95205.59;;;32.94;48.57
20612;BME280;10465;42.686;23.364;2023-07-16T10:47:36;95200.09;;;32.94;49.28
20612;BME280;10465;42.686;23.364;2023-07-16T10:50:04;95212.25;;;33.06;48.97
20612;BME280;10465;42.686;23.364;2023-07-16T10:52:30;95204.66;;;33.10;48.96
20612;BME280;10465;42.686;23.364;2023-07-16T10:54:55;95207.16;;;33.17;48.76
20612;BME280;10465;42.686;23.364;2023-07-16T10:57:26;95212.16;;;33.32;47.92
20612;BME280;10465;42.686;23.364;2023-07-16T10:59:53;95186.81;;;33.28;46.72
20612;BME280;10465;42.686;23.364;2023-07-16T11:02:19;95211.69;;;33.46;47.22
20612;BME280;10465;42.686;23.364;2023-07-16T11:04:46;95180.19;;;33.38;47.06
20612;BME280;10465;42.686;23.364;2023-07-16T11:07:13;95207.22;;;33.61;46.00
20612;BME280;10465;42.686;23.364;2023-07-16T11:09:46;95195.03;;;33.62;43.38
20612;BME280;10465;42.686;23.364;2023-07-16T11:12:14;95195.34;;;33.64;44.68
20612;BME280;10465;42.686;23.364;2023-07-16T11:14:47;95194.47;;;33.67;44.93
20612;BME280;10465;42.686;23.364;2023-07-16T11:17:13;95183.63;;;33.64;44.20
20612;BME280;10465;42.686;23.364;2023-07-16T11:19:40;95189.63;;;33.71;43.78
20612;BME280;10465;42.686;23.364;2023-07-16T11:22:07;95171.28;;;33.68;43.40
20612;BME280;10465;42.686;23.364;2023-07-16T11:24:43;95174.53;;;33.76;42.77
20612;BME280;10465;42.686;23.364;2023-07-16T11:29:39;95157.81;;;33.83;42.89
20612;BME280;10465;42.686;23.364;2023-07-16T11:32:05;95182.97;;;34.04;42.24
20612;BME280;10465;42.686;23.364;2023-07-16T11:34:30;95176.53;;;34.07;42.32
20612;BME280;10465;42.686;23.364;2023-07-16T11:37:10;95176.53;;;34.07;41.34
20612;BME280;10465;42.686;23.364;2023-07-16T11:39:36;95166.16;;;34.02;40.43
20612;BME280;10465;42.686;23.364;2023-07-16T11:42:03;95153.94;;;34.03;41.58
20612;BME280;10465;42.686;23.364;2023-07-16T11:44:35;95166.50;;;34.13;41.22
20612;BME280;10465;42.686;23.364;2023-07-16T11:47:01;95163.44;;;34.11;41.05
20612;BME280;10465;42.686;23.364;2023-07-16T11:49:27;95169.75;;;34.20;40.81
20612;BME280;10465;42.686;23.364;2023-07-16T11:51:52;95175.88;;;34.25;40.73
20612;BME280;10465;42.686;23.364;2023-07-16T11:54:18;95150.34;;;34.15;40.55
20612;BME280;10465;42.686;23.364;2023-07-16T11:56:43;95170.88;;;34.32;41.31
20612;BME280;10465;42.686;23.364;2023-07-16T11:59:08;95163.25;;;34.36;40.20
20612;BME280;10465;42.686;23.364;2023-07-16T12:01:34;95161.75;;;34.44;40.15
20612;BME280;10465;42.686;23.364;2023-07-16T12:04:00;95168.53;;;34.53;37.60
20612;BME280;10465;42.686;23.364;2023-07-16T12:06:25;95169.13;;;34.57;37.16
20612;BME280;10465;42.686;23.364;2023-07-16T12:08:51;95162.13;;;34.65;37.63
20612;BME280;10465;42.686;23.364;2023-07-16T12:11:16;95158.78;;;34.70;37.33
20612;BME280;10465;42.686;23.364;2023-07-16T12:13:42;95123.47;;;34.50;36.77
20612;BME280;10465;42.686;23.364;2023-07-16T12:16:07;95163.38;;;34.82;37.08
20612;BME280;10465;42.686;23.364;2023-07-16T12:18:33;95147.63;;;34.74;36.84
20612;BME280;10465;42.686;23.364;2023-07-16T12:20:58;95156.06;;;34.88;36.51
20612;BME280;10465;42.686;23.364;2023-07-16T12:23:24;95132.94;;;34.58;35.08
20612;BME280;10465;42.686;23.364;2023-07-16T12:25:50;95126.09;;;34.72;35.20
20612;BME280;10465;42.686;23.364;2023-07-16T12:28:15;95118.63;;;34.73;34.84
20612;BME280;10465;42.686;23.364;2023-07-16T12:30:41;95142.13;;;34.92;35.13
20612;BME280;10465;42.686;23.364;2023-07-16T12:33:06;95125.78;;;34.79;35.02
20612;BME280;10465;42.686;23.364;2023-07-16T12:35:32;95145.22;;;34.94;35.33
20612;BME280;10465;42.686;23.364;2023-07-16T12:37:58;95136.38;;;34.99;35.81
20612;BME280;10465;42.686;23.364;2023-07-16T12:40:24;95140.50;;;35.04;35.79
20612;BME280;10465;42.686;23.364;2023-07-16T12:42:49;95126.44;;;35.02;36.89
20612;BME280;10465;42.686;23.364;2023-07-16T12:45:15;95118.50;;;35.04;36.38
20612;BME280;10465;42.686;23.364;2023-07-16T12:47:41;95126.28;;;35.14;36.00
20612;BME280;10465;42.686;23.364;2023-07-16T12:50:07;95137.91;;;35.18;35.39
20612;BME280;10465;42.686;23.364;2023-07-16T12:52:33;95113.75;;;35.04;35.26
20612;BME280;10465;42.686;23.364;2023-07-16T12:54:58;95134.25;;;35.22;35.44
20612;BME280;10465;42.686;23.364;2023-07-16T12:57:24;95130.41;;;35.19;34.76